sensor_id;sensor_type;location;lat;lon;timestamp;P1;durP1;ratioP1;P2;durP2;ratioP2
13406;SDS011;6774;48.208;10.766;2024-02-21T00:00:55;1.57;;;1.30;;
13406;SDS011;6774;48.208;10.766;2024-02-21T00:03:23;4.30;;;1.63;;
13406;SDS011;6774;48.208;10.766;2024-02-21T00:05:50;2.03;;;1.43;;
13406;SDS011;6774;48.208;10.766;2024-02-21T00:08:18;1.87;;;1.30;;
13406;SDS011;6774;48.208;10.766;2024-02-21T00:10:48;12.10;;;1.87;;
13406;SDS011;6774;48.208;10.766;2024-02-21T00:13:16;4.53;;;2.77;;
13406;SDS011;6774;48.208;10.766;2024-02-21T00:15:44;2.73;;;2.43;;
13406;SDS011;6774;48.208;10.766;2024-02-21T00:18:11;3.60;;;2.37;;
13406;SDS011;6774;48.208;10.766;2024-02-21T00:20:39;3.83;;;2.83;;
13406;SDS011;6774;48.208;10.766;2024-02-21T00:23:07;1.73;;;1.63;;
13406;SDS011;6774;48.208;10.766;2024-02-21T00:25:35;3.37;;;1.57;;
13406;SDS011;6774;48.208;10.766;2024-02-21T00:28:05;4.47;;;1.37;;
13406;SDS011;6774;48.208;10.766;2024-02-21T00:30:32;4.77;;;2.17;;
13406;SDS011;6774;48.208;10.766;2024-02-21T00:33:00;3.47;;;2.10;;
13406;SDS011;6774;48.208;10.766;2024-02-21T00:35:28;2.30;;;1.90;;
13406;SDS011;6774;48.208;10.766;2024-02-21T00:37:56;1.80;;;1.67;;
13406;SDS011;6774;48.208;10.766;2024-02-21T00:40:26;2.70;;;1.30;;
13406;SDS011;6774;48.208;10.766;2024-02-21T00:42:53;8.50;;;2.77;;
13406;SDS011;6774;48.208;10.766;2024-02-21T00:45:23;3.20;;;2.93;;
13406;SDS011;6774;48.208;10.766;2024-02-21T00:47:50;2.00;;;1.80;;
13406;SDS011;6774;48.208;10.766;2024-02-21T00:50:19;1.57;;;1.47;;
13406;SDS011;6774;48.208;10.766;2024-02-21T00:52:47;3.03;;;1.57;;
13406;SDS011;6774;48.208;10.766;2024-02-21T00:55:15;1.20;;;1.00;;
13406;SDS011;6774;48.208;10.766;2024-02-21T00:57:43;3.63;;;1.73;;
13406;SDS011;6774;48.208;10.766;2024-02-21T01:00:11;2.50;;;1.57;;
13406;SDS011;6774;48.208;10.766;2024-02-21T01:02:41;2.10;;;1.73;;
13406;SDS011;6774;48.208;10.766;2024-02-21T01:05:09;4.47;;;2.37;;
13406;SDS011;6774;48.208;10.766;2024-02-21T01:07:37;2.47;;;1.20;;
13406;SDS011;6774;48.208;10.766;2024-02-21T01:10:06;2.90;;;1.50;;
13406;SDS011;6774;48.208;10.766;2024-02-21T01:12:34;6.00;;;0.93;;
13406;SDS011;6774;48.208;10.766;2024-02-21T01:15:02;2.13;;;1.10;;
13406;SDS011;6774;48.208;10.766;2024-02-21T01:17:31;1.47;;;1.20;;
13406;SDS011;6774;48.208;10.766;2024-02-21T01:20:00;4.33;;;1.80;;
13406;SDS011;6774;48.208;10.766;2024-02-21T01:22:28;1.30;;;1.20;;
13406;SDS011;6774;48.208;10.766;2024-02-21T01:24:56;2.83;;;1.17;;
13406;SDS011;6774;48.208;10.766;2024-02-21T01:27:24;1.63;;;0.83;;
13406;SDS011;6774;48.208;10.766;2024-02-21T01:29:51;1.17;;;1.17;;
13406;SDS011;6774;48.208;10.766;2024-02-21T01:32:19;1.60;;;1.07;;
13406;SDS011;6774;48.208;10.766;2024-02-21T01:34:50;1.80;;;1.70;;
13406;SDS011;6774;48.208;10.766;2024-02-21T01:37:20;1.23;;;0.90;;
13406;SDS011;6774;48.208;10.766;2024-02-21T01:39:48;1.20;;;1.07;;
13406;SDS011;6774;48.208;10.766;2024-02-21T01:42:15;1.73;;;1.63;;
13406;SDS011;6774;48.208;10.766;2024-02-21T01:44:43;7.23;;;3.20;;
13406;SDS011;6774;48.208;10.766;2024-02-21T01:47:11;1.07;;;1.07;;
13406;SDS011;6774;48.208;10.766;2024-02-21T01:49:40;1.67;;;1.57;;
13406;SDS011;6774;48.208;10.766;2024-02-21T01:52:08;1.37;;;1.13;;
13406;SDS011;6774;48.208;10.766;2024-02-21T01:54:39;4.73;;;2.87;;
13406;SDS011;6774;48.208;10.766;2024-02-21T01:57:07;3.37;;;1.30;;
13406;SDS011;6774;48.208;10.766;2024-02-21T01:59:35;1.83;;;1.73;;
13406;SDS011;6774;48.208;10.766;2024-02-21T02:02:03;3.00;;;1.77;;
13406;SDS011;6774;48.208;10.766;2024-02-21T02:04:31;4.13;;;1.73;;
13406;SDS011;6774;48.208;10.766;2024-02-21T02:06:59;1.47;;;1.23;;
13406;SDS011;6774;48.208;10.766;2024-02-21T02:09:30;2.40;;;1.03;;
13406;SDS011;6774;48.208;10.766;2024-02-21T02:11:59;1.27;;;1.17;;
13406;SDS011;6774;48.208;10.766;2024-02-21T02:14:27;3.03;;;1.90;;
13406;SDS011;6774;48.208;10.766;2024-02-21T02:16:55;3.93;;;2.03;;
13406;SDS011;6774;48.208;10.766;2024-02-21T02:19:23;2.63;;;1.83;;
13406;SDS011;6774;48.208;10.766;2024-02-21T02:21:53;2.23;;;2.13;;
13406;SDS011;6774;48.208;10.766;2024-02-21T02:24:27;2.77;;;1.30;;
13406;SDS011;6774;48.208;10.766;2024-02-21T02:26:55;4.17;;;2.27;;
13406;SDS011;6774;48.208;10.766;2024-02-21T02:29:23;1.07;;;0.97;;
13406;SDS011;6774;48.208;10.766;2024-02-21T02:31:51;2.77;;;1.30;;
13406;SDS011;6774;48.208;10.766;2024-02-21T02:34:19;4.60;;;2.40;;
13406;SDS011;6774;48.208;10.766;2024-02-21T02:36:47;2.23;;;1.00;;
13406;SDS011;6774;48.208;10.766;2024-02-21T02:39:15;5.23;;;1.23;;
13406;SDS011;6774;48.208;10.766;2024-02-21T02:41:45;1.63;;;1.53;;
13406;SDS011;6774;48.208;10.766;2024-02-21T02:44:12;0.97;;;0.90;;
13406;SDS011;6774;48.208;10.766;2024-02-21T02:46:40;1.13;;;1.00;;
13406;SDS011;6774;48.208;10.766;2024-02-21T02:49:08;3.50;;;2.10;;
13406;SDS011;6774;48.208;10.766;2024-02-21T02:51:36;1.53;;;1.43;;
13406;SDS011;6774;48.208;10.766;2024-02-21T02:54:04;4.17;;;1.27;;
13406;SDS011;6774;48.208;10.766;2024-02-21T02:56:32;1.13;;;1.10;;
13406;SDS011;6774;48.208;10.766;2024-02-21T02:59:01;1.67;;;1.57;;
13406;SDS011;6774;48.208;10.766;2024-02-21T03:01:33;1.37;;;1.27;;
13406;SDS011;6774;48.208;10.766;2024-02-21T03:04:01;1.33;;;1.23;;
13406;SDS011;6774;48.208;10.766;2024-02-21T03:06:29;0.70;;;0.70;;
13406;SDS011;6774;48.208;10.766;2024-02-21T03:08:57;1.43;;;1.33;;
13406;SDS011;6774;48.208;10.766;2024-02-21T03:11:27;2.63;;;0.80;;
13406;SDS011;6774;48.208;10.766;2024-02-21T03:13:56;1.07;;;0.80;;
13406;SDS011;6774;48.208;10.766;2024-02-21T03:16:26;0.80;;;0.80;;
13406;SDS011;6774;48.208;10.766;2024-02-21T03:18:53;3.03;;;0.93;;
13406;SDS011;6774;48.208;10.766;2024-02-21T03:21:21;1.10;;;1.00;;
13406;SDS011;6774;48.208;10.766;2024-02-21T03:23:49;3.87;;;1.67;;
13406;SDS011;6774;48.208;10.766;2024-02-21T03:26:17;5.40;;;1.37;;
13406;SDS011;6774;48.208;10.766;2024-02-21T03:28:45;0.87;;;0.87;;
13406;SDS011;6774;48.208;10.766;2024-02-21T03:31:13;1.13;;;0.60;;
13406;SDS011;6774;48.208;10.766;2024-02-21T03:33:42;1.10;;;1.07;;
13406;SDS011;6774;48.208;10.766;2024-02-21T03:36:13;3.90;;;0.93;;
13406;SDS011;6774;48.208;10.766;2024-02-21T03:38:41;1.90;;;1.80;;
13406;SDS011;6774;48.208;10.766;2024-02-21T03:41:09;1.50;;;1.40;;
13406;SDS011;6774;48.208;10.766;2024-02-21T03:43:37;1.20;;;1.00;;
13406;SDS011;6774;48.208;10.766;2024-02-21T03:46:05;1.77;;;1.47;;
13406;SDS011;6774;48.208;10.766;2024-02-21T03:48:34;0.87;;;0.83;;
13406;SDS011;6774;48.208;10.766;2024-02-21T03:51:03;1.10;;;0.47;;
13406;SDS011;6774;48.208;10.766;2024-02-21T03:53:31;1.07;;;0.97;;
13406;SDS011;6774;48.208;10.766;2024-02-21T03:56:00;1.47;;;0.53;;
13406;SDS011;6774;48.208;10.766;2024-02-21T03:58:30;1.43;;;0.97;;
13406;SDS011;6774;48.208;10.766;2024-02-21T04:00:59;4.50;;;2.43;;
13406;SDS011;6774;48.208;10.766;2024-02-21T04:03:28;0.70;;;0.40;;
13406;SDS011;6774;48.208;10.766;2024-02-21T04:05:56;4.90;;;2.00;;
13406;SDS011;6774;48.208;10.766;2024-02-21T04:08:25;2.90;;;1.50;;
13406;SDS011;6774;48.208;10.766;2024-02-21T04:10:53;0.50;;;0.50;;
13406;SDS011;6774;48.208;10.766;2024-02-21T04:13:21;0.90;;;0.77;;
13406;SDS011;6774;48.208;10.766;2024-02-21T04:15:49;1.47;;;1.37;;
13406;SDS011;6774;48.208;10.766;2024-02-21T04:18:17;0.70;;;0.70;;
13406;SDS011;6774;48.208;10.766;2024-02-21T04:20:44;1.73;;;0.63;;
13406;SDS011;6774;48.208;10.766;2024-02-21T04:23:12;0.63;;;0.53;;
13406;SDS011;6774;48.208;10.766;2024-02-21T04:25:42;0.70;;;0.47;;
13406;SDS011;6774;48.208;10.766;2024-02-21T04:28:09;0.53;;;0.30;;
13406;SDS011;6774;48.208;10.766;2024-02-21T04:30:37;0.97;;;0.77;;
13406;SDS011;6774;48.208;10.766;2024-02-21T04:33:05;1.43;;;0.50;;
13406;SDS011;6774;48.208;10.766;2024-02-21T04:35:33;2.87;;;0.80;;
13406;SDS011;6774;48.208;10.766;2024-02-21T04:38:03;1.17;;;0.60;;
13406;SDS011;6774;48.208;10.766;2024-02-21T04:40:31;1.40;;;0.60;;
13406;SDS011;6774;48.208;10.766;2024-02-21T04:43:00;1.83;;;0.50;;
13406;SDS011;6774;48.208;10.766;2024-02-21T04:45:28;1.20;;;0.93;;
13406;SDS011;6774;48.208;10.766;2024-02-21T04:47:55;1.33;;;1.00;;
13406;SDS011;6774;48.208;10.766;2024-02-21T04:50:23;2.23;;;1.87;;
13406;SDS011;6774;48.208;10.766;2024-02-21T04:52:51;1.13;;;0.70;;
13406;SDS011;6774;48.208;10.766;2024-02-21T04:55:19;2.40;;;1.10;;
13406;SDS011;6774;48.208;10.766;2024-02-21T04:57:47;1.17;;;0.60;;
13406;SDS011;6774;48.208;10.766;2024-02-21T05:00:16;0.57;;;0.40;;
13406;SDS011;6774;48.208;10.766;2024-02-21T05:02:44;1.03;;;0.50;;
13406;SDS011;6774;48.208;10.766;2024-02-21T05:05:12;1.27;;;0.93;;
13406;SDS011;6774;48.208;10.766;2024-02-21T05:07:41;4.80;;;0.90;;
13406;SDS011;6774;48.208;10.766;2024-02-21T05:10:09;0.80;;;0.30;;
13406;SDS011;6774;48.208;10.766;2024-02-21T05:12:37;1.00;;;0.97;;
13406;SDS011;6774;48.208;10.766;2024-02-21T05:15:05;0.70;;;0.40;;
13406;SDS011;6774;48.208;10.766;2024-02-21T05:17:35;0.90;;;0.83;;
13406;SDS011;6774;48.208;10.766;2024-02-21T05:20:04;0.60;;;0.60;;
13406;SDS011;6774;48.208;10.766;2024-02-21T05:22:32;1.77;;;1.67;;
13406;SDS011;6774;48.208;10.766;2024-02-21T05:25:00;1.77;;;1.67;;
13406;SDS011;6774;48.208;10.766;2024-02-21T05:27:28;1.07;;;1.07;;
13406;SDS011;6774;48.208;10.766;2024-02-21T05:29:56;1.50;;;0.70;;
13406;SDS011;6774;48.208;10.766;2024-02-21T05:32:25;0.67;;;0.63;;
13406;SDS011;6774;48.208;10.766;2024-02-21T05:34:54;0.80;;;0.67;;
13406;SDS011;6774;48.208;10.766;2024-02-21T05:37:24;2.13;;;1.00;;
13406;SDS011;6774;48.208;10.766;2024-02-21T05:39:52;0.90;;;0.50;;
13406;SDS011;6774;48.208;10.766;2024-02-21T05:42:20;0.80;;;0.80;;
13406;SDS011;6774;48.208;10.766;2024-02-21T05:44:48;1.93;;;0.67;;
13406;SDS011;6774;48.208;10.766;2024-02-21T05:47:16;1.13;;;1.03;;
13406;SDS011;6774;48.208;10.766;2024-02-21T05:49:46;1.77;;;1.43;;
13406;SDS011;6774;48.208;10.766;2024-02-21T05:52:16;1.80;;;1.57;;
13406;SDS011;6774;48.208;10.766;2024-02-21T05:54:43;1.17;;;0.90;;
13406;SDS011;6774;48.208;10.766;2024-02-21T05:57:14;1.10;;;0.90;;
13406;SDS011;6774;48.208;10.766;2024-02-21T05:59:41;1.00;;;0.47;;
13406;SDS011;6774;48.208;10.766;2024-02-21T06:02:10;0.50;;;0.43;;
13406;SDS011;6774;48.208;10.766;2024-02-21T06:04:37;0.93;;;0.40;;
13406;SDS011;6774;48.208;10.766;2024-02-21T06:07:06;1.23;;;1.10;;
13406;SDS011;6774;48.208;10.766;2024-02-21T06:09:35;0.77;;;0.77;;
13406;SDS011;6774;48.208;10.766;2024-02-21T06:12:03;1.10;;;0.33;;
13406;SDS011;6774;48.208;10.766;2024-02-21T06:14:31;1.70;;;1.17;;
13406;SDS011;6774;48.208;10.766;2024-02-21T06:16:59;1.30;;;0.90;;
13406;SDS011;6774;48.208;10.766;2024-02-21T06:19:27;0.60;;;0.50;;
13406;SDS011;6774;48.208;10.766;2024-02-21T06:21:55;1.43;;;1.33;;
13406;SDS011;6774;48.208;10.766;2024-02-21T06:24:23;1.00;;;0.60;;
13406;SDS011;6774;48.208;10.766;2024-02-21T06:26:52;2.47;;;0.67;;
13406;SDS011;6774;48.208;10.766;2024-02-21T06:29:19;2.47;;;1.83;;
13406;SDS011;6774;48.208;10.766;2024-02-21T06:31:47;0.60;;;0.50;;
13406;SDS011;6774;48.208;10.766;2024-02-21T06:34:15;0.53;;;0.23;;
13406;SDS011;6774;48.208;10.766;2024-02-21T06:36:44;3.83;;;0.70;;
13406;SDS011;6774;48.208;10.766;2024-02-21T06:39:12;1.20;;;1.20;;
13406;SDS011;6774;48.208;10.766;2024-02-21T06:41:40;0.50;;;0.40;;
13406;SDS011;6774;48.208;10.766;2024-02-21T06:44:09;0.70;;;0.57;;
13406;SDS011;6774;48.208;10.766;2024-02-21T06:46:37;1.97;;;0.60;;
13406;SDS011;6774;48.208;10.766;2024-02-21T06:49:04;1.30;;;0.73;;
13406;SDS011;6774;48.208;10.766;2024-02-21T06:51:32;0.40;;;0.30;;
13406;SDS011;6774;48.208;10.766;2024-02-21T06:54:01;0.50;;;0.40;;
13406;SDS011;6774;48.208;10.766;2024-02-21T06:56:29;0.50;;;0.37;;
13406;SDS011;6774;48.208;10.766;2024-02-21T06:58:57;0.50;;;0.50;;
13406;SDS011;6774;48.208;10.766;2024-02-21T07:01:26;0.70;;;0.70;;
13406;SDS011;6774;48.208;10.766;2024-02-21T07:03:54;1.23;;;0.50;;
13406;SDS011;6774;48.208;10.766;2024-02-21T07:06:22;2.30;;;0.60;;
13406;SDS011;6774;48.208;10.766;2024-02-21T07:08:50;0.73;;;0.73;;
13406;SDS011;6774;48.208;10.766;2024-02-21T07:11:18;0.80;;;0.70;;
13406;SDS011;6774;48.208;10.766;2024-02-21T07:13:46;0.83;;;0.40;;
13406;SDS011;6774;48.208;10.766;2024-02-21T07:16:14;3.60;;;0.37;;
13406;SDS011;6774;48.208;10.766;2024-02-21T07:18:43;0.70;;;0.60;;
13406;SDS011;6774;48.208;10.766;2024-02-21T07:21:11;1.20;;;0.40;;
13406;SDS011;6774;48.208;10.766;2024-02-21T07:23:40;0.87;;;0.60;;
13406;SDS011;6774;48.208;10.766;2024-02-21T07:26:08;0.60;;;0.40;;
13406;SDS011;6774;48.208;10.766;2024-02-21T07:28:36;1.03;;;0.60;;
13406;SDS011;6774;48.208;10.766;2024-02-21T07:31:04;0.83;;;0.83;;
13406;SDS011;6774;48.208;10.766;2024-02-21T07:33:32;0.50;;;0.30;;
13406;SDS011;6774;48.208;10.766;2024-02-21T07:36:06;0.30;;;0.20;;
13406;SDS011;6774;48.208;10.766;2024-02-21T07:38:34;0.50;;;0.40;;
13406;SDS011;6774;48.208;10.766;2024-02-21T07:41:02;0.50;;;0.30;;
13406;SDS011;6774;48.208;10.766;2024-02-21T07:43:31;0.40;;;0.30;;
13406;SDS011;6774;48.208;10.766;2024-02-21T07:45:58;0.23;;;0.20;;
13406;SDS011;6774;48.208;10.766;2024-02-21T07:48:26;1.27;;;0.30;;
13406;SDS011;6774;48.208;10.766;2024-02-21T07:50:57;0.33;;;0.30;;
13406;SDS011;6774;48.208;10.766;2024-02-21T07:53:26;1.90;;;0.63;;
13406;SDS011;6774;48.208;10.766;2024-02-21T07:55:54;1.43;;;1.33;;
13406;SDS011;6774;48.208;10.766;2024-02-21T07:58:21;0.43;;;0.43;;
13406;SDS011;6774;48.208;10.766;2024-02-21T08:00:49;0.40;;;0.40;;
13406;SDS011;6774;48.208;10.766;2024-02-21T08:03:17;1.13;;;0.50;;
13406;SDS011;6774;48.208;10.766;2024-02-21T08:05:45;1.17;;;0.60;;
13406;SDS011;6774;48.208;10.766;2024-02-21T08:08:13;0.70;;;0.70;;
13406;SDS011;6774;48.208;10.766;2024-02-21T08:10:46;1.07;;;0.50;;
13406;SDS011;6774;48.208;10.766;2024-02-21T08:13:14;0.40;;;0.40;;
13406;SDS011;6774;48.208;10.766;2024-02-21T08:15:41;3.03;;;0.60;;
13406;SDS011;6774;48.208;10.766;2024-02-21T08:18:10;0.63;;;0.50;;
13406;SDS011;6774;48.208;10.766;2024-02-21T08:20:37;1.33;;;0.97;;
13406;SDS011;6774;48.208;10.766;2024-02-21T08:23:05;0.60;;;0.60;;
13406;SDS011;6774;48.208;10.766;2024-02-21T08:25:33;0.40;;;0.40;;
13406;SDS011;6774;48.208;10.766;2024-02-21T08:28:04;0.87;;;0.43;;
13406;SDS011;6774;48.208;10.766;2024-02-21T08:30:32;0.43;;;0.30;;
13406;SDS011;6774;48.208;10.766;2024-02-21T08:33:00;0.47;;;0.47;;
13406;SDS011;6774;48.208;10.766;2024-02-21T08:35:28;2.90;;;0.30;;
13406;SDS011;6774;48.208;10.766;2024-02-21T08:37:56;7.10;;;1.70;;
13406;SDS011;6774;48.208;10.766;2024-02-21T08:40:24;3.43;;;0.60;;
13406;SDS011;6774;48.208;10.766;2024-02-21T08:42:52;0.30;;;0.30;;
13406;SDS011;6774;48.208;10.766;2024-02-21T08:45:21;0.90;;;0.43;;
13406;SDS011;6774;48.208;10.766;2024-02-21T08:47:49;2.70;;;1.17;;
13406;SDS011;6774;48.208;10.766;2024-02-21T08:50:17;0.33;;;0.30;;
13406;SDS011;6774;48.208;10.766;2024-02-21T08:52:54;0.70;;;0.53;;
13406;SDS011;6774;48.208;10.766;2024-02-21T08:55:22;0.27;;;0.20;;
13406;SDS011;6774;48.208;10.766;2024-02-21T08:57:50;0.73;;;0.70;;
13406;SDS011;6774;48.208;10.766;2024-02-21T09:00:18;0.20;;;0.20;;
13406;SDS011;6774;48.208;10.766;2024-02-21T09:02:52;1.07;;;0.73;;
13406;SDS011;6774;48.208;10.766;2024-02-21T09:05:21;1.80;;;1.13;;
13406;SDS011;6774;48.208;10.766;2024-02-21T09:07:51;0.20;;;0.20;;
13406;SDS011;6774;48.208;10.766;2024-02-21T09:10:19;0.37;;;0.20;;
13406;SDS011;6774;48.208;10.766;2024-02-21T09:12:48;0.73;;;0.30;;
13406;SDS011;6774;48.208;10.766;2024-02-21T09:15:15;0.40;;;0.40;;
13406;SDS011;6774;48.208;10.766;2024-02-21T09:17:43;2.93;;;0.40;;
13406;SDS011;6774;48.208;10.766;2024-02-21T09:20:13;0.50;;;0.30;;
13406;SDS011;6774;48.208;10.766;2024-02-21T09:22:43;0.43;;;0.40;;
13406;SDS011;6774;48.208;10.766;2024-02-21T09:25:11;0.40;;;0.40;;
13406;SDS011;6774;48.208;10.766;2024-02-21T09:27:38;1.30;;;0.53;;
13406;SDS011;6774;48.208;10.766;2024-02-21T09:30:07;1.53;;;0.53;;
13406;SDS011;6774;48.208;10.766;2024-02-21T09:32:35;1.00;;;0.30;;
13406;SDS011;6774;48.208;10.766;2024-02-21T09:35:04;0.40;;;0.30;;
13406;SDS011;6774;48.208;10.766;2024-02-21T09:37:34;1.73;;;0.43;;
13406;SDS011;6774;48.208;10.766;2024-02-21T09:40:02;0.37;;;0.33;;
13406;SDS011;6774;48.208;10.766;2024-02-21T09:42:34;0.37;;;0.20;;
13406;SDS011;6774;48.208;10.766;2024-02-21T09:45:07;0.30;;;0.30;;
13406;SDS011;6774;48.208;10.766;2024-02-21T09:47:39;0.50;;;0.50;;
13406;SDS011;6774;48.208;10.766;2024-02-21T09:50:14;3.03;;;0.53;;
13406;SDS011;6774;48.208;10.766;2024-02-21T09:52:44;0.37;;;0.20;;
13406;SDS011;6774;48.208;10.766;2024-02-21T09:55:13;0.17;;;0.13;;
13406;SDS011;6774;48.208;10.766;2024-02-21T09:57:43;0.63;;;0.63;;
13406;SDS011;6774;48.208;10.766;2024-02-21T10:00:12;0.10;;;0.10;;
13406;SDS011;6774;48.208;10.766;2024-02-21T10:02:47;1.23;;;0.47;;
13406;SDS011;6774;48.208;10.766;2024-02-21T10:05:16;3.27;;;0.30;;
13406;SDS011;6774;48.208;10.766;2024-02-21T10:07:46;0.33;;;0.33;;
13406;SDS011;6774;48.208;10.766;2024-02-21T10:10:16;0.27;;;0.10;;
13406;SDS011;6774;48.208;10.766;2024-02-21T10:12:48;0.27;;;0.27;;
13406;SDS011;6774;48.208;10.766;2024-02-21T10:15:19;0.70;;;0.40;;
13406;SDS011;6774;48.208;10.766;2024-02-21T10:17:48;0.47;;;0.40;;
13406;SDS011;6774;48.208;10.766;2024-02-21T10:20:17;0.60;;;0.60;;
13406;SDS011;6774;48.208;10.766;2024-02-21T10:22:46;1.53;;;1.43;;
13406;SDS011;6774;48.208;10.766;2024-02-21T10:25:14;1.50;;;1.40;;
13406;SDS011;6774;48.208;10.766;2024-02-21T10:27:42;2.23;;;2.13;;
13406;SDS011;6774;48.208;10.766;2024-02-21T10:30:12;0.53;;;0.50;;
13406;SDS011;6774;48.208;10.766;2024-02-21T10:32:48;1.40;;;0.57;;
13406;SDS011;6774;48.208;10.766;2024-02-21T10:35:25;0.50;;;0.50;;
13406;SDS011;6774;48.208;10.766;2024-02-21T10:37:56;0.83;;;0.37;;
13406;SDS011;6774;48.208;10.766;2024-02-21T10:40:24;0.30;;;0.20;;
13406;SDS011;6774;48.208;10.766;2024-02-21T10:42:56;0.17;;;0.10;;
13406;SDS011;6774;48.208;10.766;2024-02-21T10:45:29;0.00;;;0.00;;
13406;SDS011;6774;48.208;10.766;2024-02-21T10:48:01;0.10;;;0.10;;
13406;SDS011;6774;48.208;10.766;2024-02-21T10:50:40;0.20;;;0.10;;
13406;SDS011;6774;48.208;10.766;2024-02-21T10:53:18;0.03;;;0.03;;
13406;SDS011;6774;48.208;10.766;2024-02-21T10:55:56;0.30;;;0.20;;
13406;SDS011;6774;48.208;10.766;2024-02-21T10:58:29;0.20;;;0.20;;
13406;SDS011;6774;48.208;10.766;2024-02-21T11:00:58;0.10;;;0.10;;
13406;SDS011;6774;48.208;10.766;2024-02-21T11:03:26;0.60;;;0.60;;
13406;SDS011;6774;48.208;10.766;2024-02-21T11:05:54;0.20;;;0.10;;
13406;SDS011;6774;48.208;10.766;2024-02-21T11:08:23;0.30;;;0.13;;
13406;SDS011;6774;48.208;10.766;2024-02-21T11:10:56;0.20;;;0.10;;
13406;SDS011;6774;48.208;10.766;2024-02-21T11:13:29;0.33;;;0.10;;
13406;SDS011;6774;48.208;10.766;2024-02-21T11:16:07;1.30;;;0.10;;
13406;SDS011;6774;48.208;10.766;2024-02-21T11:18:37;0.53;;;0.47;;
13406;SDS011;6774;48.208;10.766;2024-02-21T11:21:05;0.13;;;0.10;;
13406;SDS011;6774;48.208;10.766;2024-02-21T11:23:34;0.30;;;0.10;;
13406;SDS011;6774;48.208;10.766;2024-02-21T11:26:06;0.43;;;0.10;;
13406;SDS011;6774;48.208;10.766;2024-02-21T11:28:34;0.10;;;0.10;;
13406;SDS011;6774;48.208;10.766;2024-02-21T11:31:09;0.10;;;0.10;;
13406;SDS011;6774;48.208;10.766;2024-02-21T11:33:40;12.03;;;1.27;;
13406;SDS011;6774;48.208;10.766;2024-02-21T11:36:08;0.10;;;0.10;;
13406;SDS011;6774;48.208;10.766;2024-02-21T11:38:38;0.10;;;0.10;;
13406;SDS011;6774;48.208;10.766;2024-02-21T11:41:07;2.40;;;1.13;;
13406;SDS011;6774;48.208;10.766;2024-02-21T11:43:38;0.10;;;0.10;;
13406;SDS011;6774;48.208;10.766;2024-02-21T11:46:06;0.60;;;0.20;;
13406;SDS011;6774;48.208;10.766;2024-02-21T11:48:34;0.10;;;0.10;;
13406;SDS011;6774;48.208;10.766;2024-02-21T11:51:02;0.17;;;0.10;;
13406;SDS011;6774;48.208;10.766;2024-02-21T11:53:32;4.33;;;1.40;;
13406;SDS011;6774;48.208;10.766;2024-02-21T11:56:07;0.40;;;0.20;;
13406;SDS011;6774;48.208;10.766;2024-02-21T11:58:35;0.13;;;0.10;;
13406;SDS011;6774;48.208;10.766;2024-02-21T12:01:03;0.10;;;0.10;;
13406;SDS011;6774;48.208;10.766;2024-02-21T12:03:31;2.60;;;0.20;;
13406;SDS011;6774;48.208;10.766;2024-02-21T12:06:00;0.17;;;0.10;;
13406;SDS011;6774;48.208;10.766;2024-02-21T12:08:40;0.10;;;0.07;;
13406;SDS011;6774;48.208;10.766;2024-02-21T12:11:17;0.50;;;0.33;;
13406;SDS011;6774;48.208;10.766;2024-02-21T12:13:46;0.20;;;0.10;;
13406;SDS011;6774;48.208;10.766;2024-02-21T12:16:15;0.00;;;0.00;;
13406;SDS011;6774;48.208;10.766;2024-02-21T12:18:44;0.10;;;0.10;;
13406;SDS011;6774;48.208;10.766;2024-02-21T12:21:12;0.47;;;0.10;;
13406;SDS011;6774;48.208;10.766;2024-02-21T12:23:40;0.10;;;0.00;;
13406;SDS011;6774;48.208;10.766;2024-02-21T12:26:07;0.30;;;0.30;;
13406;SDS011;6774;48.208;10.766;2024-02-21T12:28:37;2.40;;;0.10;;
13406;SDS011;6774;48.208;10.766;2024-02-21T12:31:04;3.30;;;0.20;;
13406;SDS011;6774;48.208;10.766;2024-02-21T12:33:32;0.10;;;0.10;;
13406;SDS011;6774;48.208;10.766;2024-02-21T12:36:01;0.07;;;0.00;;
13406;SDS011;6774;48.208;10.766;2024-02-21T12:38:30;0.27;;;0.10;;
13406;SDS011;6774;48.208;10.766;2024-02-21T12:40:58;0.73;;;0.10;;
13406;SDS011;6774;48.208;10.766;2024-02-21T12:43:27;0.67;;;0.20;;
13406;SDS011;6774;48.208;10.766;2024-02-21T12:45:56;0.00;;;0.00;;
13406;SDS011;6774;48.208;10.766;2024-02-21T12:48:24;0.00;;;0.00;;
13406;SDS011;6774;48.208;10.766;2024-02-21T12:50:52;0.10;;;0.10;;
13406;SDS011;6774;48.208;10.766;2024-02-21T12:53:20;0.20;;;0.20;;
13406;SDS011;6774;48.208;10.766;2024-02-21T12:55:58;0.20;;;0.20;;
13406;SDS011;6774;48.208;10.766;2024-02-21T12:58:26;1.90;;;0.07;;
13406;SDS011;6774;48.208;10.766;2024-02-21T13:00:59;0.10;;;0.10;;
13406;SDS011;6774;48.208;10.766;2024-02-21T13:03:27;0.57;;;0.43;;
13406;SDS011;6774;48.208;10.766;2024-02-21T13:05:59;0.33;;;0.10;;
13406;SDS011;6774;48.208;10.766;2024-02-21T13:08:27;1.97;;;0.37;;
13406;SDS011;6774;48.208;10.766;2024-02-21T13:10:55;0.27;;;0.27;;
13406;SDS011;6774;48.208;10.766;2024-02-21T13:13:23;0.10;;;0.10;;
13406;SDS011;6774;48.208;10.766;2024-02-21T13:15:51;0.50;;;0.17;;
13406;SDS011;6774;48.208;10.766;2024-02-21T13:18:20;0.53;;;0.10;;
13406;SDS011;6774;48.208;10.766;2024-02-21T13:20:48;0.37;;;0.30;;
13406;SDS011;6774;48.208;10.766;2024-02-21T13:23:16;1.73;;;0.20;;
13406;SDS011;6774;48.208;10.766;2024-02-21T13:25:43;0.40;;;0.30;;
13406;SDS011;6774;48.208;10.766;2024-02-21T13:28:12;0.33;;;0.30;;
13406;SDS011;6774;48.208;10.766;2024-02-21T13:30:41;0.20;;;0.13;;
13406;SDS011;6774;48.208;10.766;2024-02-21T13:33:09;1.43;;;0.50;;
13406;SDS011;6774;48.208;10.766;2024-02-21T13:35:39;0.20;;;0.10;;
13406;SDS011;6774;48.208;10.766;2024-02-21T13:38:07;0.30;;;0.20;;
13406;SDS011;6774;48.208;10.766;2024-02-21T13:40:36;0.20;;;0.10;;
13406;SDS011;6774;48.208;10.766;2024-02-21T13:43:04;0.30;;;0.30;;
13406;SDS011;6774;48.208;10.766;2024-02-21T13:45:36;0.20;;;0.17;;
13406;SDS011;6774;48.208;10.766;2024-02-21T13:48:04;0.47;;;0.10;;
13406;SDS011;6774;48.208;10.766;2024-02-21T13:50:38;0.63;;;0.63;;
13406;SDS011;6774;48.208;10.766;2024-02-21T13:53:09;2.10;;;0.00;;
13406;SDS011;6774;48.208;10.766;2024-02-21T13:55:37;0.40;;;0.40;;
13406;SDS011;6774;48.208;10.766;2024-02-21T13:58:07;0.40;;;0.07;;
13406;SDS011;6774;48.208;10.766;2024-02-21T14:00:35;0.10;;;0.00;;
13406;SDS011;6774;48.208;10.766;2024-02-21T14:03:03;0.13;;;0.10;;
13406;SDS011;6774;48.208;10.766;2024-02-21T14:05:31;0.20;;;0.17;;
13406;SDS011;6774;48.208;10.766;2024-02-21T14:08:01;1.63;;;0.63;;
13406;SDS011;6774;48.208;10.766;2024-02-21T14:10:29;1.20;;;1.10;;
13406;SDS011;6774;48.208;10.766;2024-02-21T14:12:57;2.13;;;0.70;;
13406;SDS011;6774;48.208;10.766;2024-02-21T14:15:25;3.23;;;1.80;;
13406;SDS011;6774;48.208;10.766;2024-02-21T14:17:52;0.50;;;0.50;;
13406;SDS011;6774;48.208;10.766;2024-02-21T14:20:21;0.43;;;0.20;;
13406;SDS011;6774;48.208;10.766;2024-02-21T14:22:49;0.30;;;0.20;;
13406;SDS011;6774;48.208;10.766;2024-02-21T14:25:19;0.43;;;0.20;;
13406;SDS011;6774;48.208;10.766;2024-02-21T14:27:47;0.30;;;0.20;;
13406;SDS011;6774;48.208;10.766;2024-02-21T14:30:15;0.20;;;0.20;;
13406;SDS011;6774;48.208;10.766;2024-02-21T14:32:43;0.33;;;0.10;;
13406;SDS011;6774;48.208;10.766;2024-02-21T14:35:11;0.20;;;0.10;;
13406;SDS011;6774;48.208;10.766;2024-02-21T14:37:39;0.10;;;0.10;;
13406;SDS011;6774;48.208;10.766;2024-02-21T14:40:07;0.23;;;0.20;;
13406;SDS011;6774;48.208;10.766;2024-02-21T14:42:37;1.60;;;1.07;;
13406;SDS011;6774;48.208;10.766;2024-02-21T14:45:05;0.10;;;0.10;;
13406;SDS011;6774;48.208;10.766;2024-02-21T14:47:33;1.20;;;0.10;;
13406;SDS011;6774;48.208;10.766;2024-02-21T14:50:02;0.10;;;0.10;;
13406;SDS011;6774;48.208;10.766;2024-02-21T14:52:31;0.97;;;0.10;;
13406;SDS011;6774;48.208;10.766;2024-02-21T14:55:01;0.40;;;0.20;;
13406;SDS011;6774;48.208;10.766;2024-02-21T14:57:30;0.67;;;0.50;;